DAUO

Guemar Airport

Guemar, Algeria
METAR DAUO 190300Z 09005KT CAVOK 07/02 Q1019
Observed Flight Rules
Jan-19 @ 03:00 UTC (38 minutes ago) Visual Flight Rules
Wind Visibility Clouds
90° at 5 knots 10,000+ meters
  • Clear skies
Temperatures Readings
Current 7°C / 45°F
Dewpoint 2°C / 36°F
Humidity 71%
Altimeter 30.09" Hg
Pressure 1019 hPa
Elevation 63
METAR DAUO 190300Z 09005KT CAVOK 07/02 Q1019
Observed Flight Rules
Jan-19 @ 03:00 UTC
(38 minutes ago)
VFR
Wind Visibility
90° at 5 knots 10,000+ meters
Clouds
  • Clear skies
Temperature Dewpoint
7°C / 45°F 2°C / 36°F
Humidity Altimeter Pressure
71% 30.09" Hg 1019 hPa